Time;durP1;ratioP1;P1;durP2;ratioP2;P2;SDS_P1;SDS_P2;PMS_P1;PMS_P2;Temp;Humidity;BMP_temperature;BMP_pressure;BME280_temperature;BME280_humidity;BME280_pressure;Samples;Min_cycle;Max_cycle;Signal;HPM_P1;HPM_P2
2023/09/12 00:01:16;;;;;;;3.17;2.90;;;22.30;99.90;;;;;;4992456;28;20211;-63
2023/09/12 00:03:43;;;;;;;3.42;3.13;;;22.20;99.90;;;;;;5009549;28;20230;-64
2023/09/12 00:06:10;;;;;;;3.10;2.90;;;22.20;99.90;;;;;;5008519;28;20270;-64
2023/09/12 00:08:37;;;;;;;3.67;2.78;;;22.10;99.90;;;;;;5009168;28;20218;-63
2023/09/12 00:11:09;;;;;;;3.20;3.00;;;22.10;99.90;;;;;;5007523;28;20198;-63
2023/09/12 00:13:37;;;;;;;3.22;3.03;;;22.10;99.90;;;;;;5009971;28;20230;-64
2023/09/12 00:16:06;;;;;;;3.50;3.20;;;22.10;99.90;;;;;;5009582;28;20696;-63
2023/09/12 00:18:34;;;;;;;3.72;3.53;;;22.00;99.90;;;;;;5008197;28;20636;-65
2023/09/12 00:21:02;;;;;;;3.88;3.58;;;22.00;99.90;;;;;;5008957;28;20186;-64
2023/09/12 00:23:29;;;;;;;3.92;3.58;;;22.00;99.90;;;;;;5010240;28;20653;-64
2023/09/12 00:25:57;;;;;;;3.80;3.50;;;21.90;99.90;;;;;;5005568;28;20206;-64
2023/09/12 00:28:24;;;;;;;4.68;4.25;;;21.90;99.90;;;;;;5010878;28;20195;-64
2023/09/12 00:30:53;;;;;;;3.92;3.63;;;21.90;99.90;;;;;;4998329;28;21188;-64
2023/09/12 00:33:21;;;;;;;4.07;3.72;;;21.80;99.90;;;;;;5008344;28;20202;-64
2023/09/12 00:35:48;;;;;;;3.65;3.35;;;21.90;99.90;;;;;;5008538;28;20195;-63
2023/09/12 00:38:15;;;;;;;3.60;3.40;;;21.90;99.90;;;;;;5007707;28;20206;-64
2023/09/12 00:40:42;;;;;;;3.60;3.30;;;21.90;99.90;;;;;;4995787;28;20240;-63
2023/09/12 00:43:11;;;;;;;3.00;2.80;;;21.90;99.90;;;;;;5009689;28;20191;-63
2023/09/12 00:45:38;;;;;;;3.40;3.03;;;22.00;99.90;;;;;;5006124;28;20207;-66
2023/09/12 00:48:06;;;;;;;3.83;3.42;;;21.90;99.90;;;;;;5007087;28;20609;-64
2023/09/12 00:50:36;;;;;;;3.40;3.20;;;22.00;99.90;;;;;;5008079;28;20201;-64
2023/09/12 00:53:05;;;;;;;3.60;3.38;;;22.00;99.90;;;;;;5008573;28;20187;-64
2023/09/12 00:55:34;;;;;;;3.70;3.40;;;21.90;99.90;;;;;;5007554;28;20297;-64
2023/09/12 00:58:03;;;;;;;3.92;3.25;;;21.60;99.90;;;;;;5008816;28;20708;-64
2023/09/12 01:00:30;;;;;;;3.20;3.00;;;21.90;99.90;;;;;;5008879;28;20210;-63
2023/09/12 01:02:59;;;;;;;3.50;3.22;;;21.80;99.90;;;;;;5007327;28;20230;-64
2023/09/12 01:05:27;;;;;;;5.35;3.83;;;21.80;99.90;;;;;;5007917;28;20582;-64
2023/09/12 01:07:56;;;;;;;3.58;3.38;;;21.80;99.90;;;;;;5009369;28;20660;-64
2023/09/12 01:10:23;;;;;;;3.00;2.80;;;21.70;99.90;;;;;;5006118;28;20218;-64
2023/09/12 01:12:51;;;;;;;3.83;3.53;;;21.70;99.90;;;;;;5008560;28;20702;-64
2023/09/12 01:15:18;;;;;;;3.53;3.33;;;21.60;99.90;;;;;;5009118;28;20329;-64
2023/09/12 01:17:46;;;;;;;3.70;3.40;;;21.70;99.90;;;;;;5027632;28;20218;-64
2023/09/12 01:20:17;;;;;;;3.85;3.58;;;21.60;99.90;;;;;;5025254;28;20220;-64
2023/09/12 01:22:59;;;;;;;3.00;2.80;;;21.60;99.90;;;;;;5019960;28;20298;-64
2023/09/12 01:25:55;;;;;;;3.55;3.28;;;21.70;99.90;;;;;;5005759;28;20195;-64
2023/09/12 01:28:25;;;;;;;3.65;3.38;;;21.60;99.90;;;;;;5009759;28;20192;-64
2023/09/12 01:30:54;;;;;;;3.42;3.22;;;21.60;99.90;;;;;;4996482;28;20634;-64
2023/09/12 01:33:21;;;;;;;3.22;3.03;;;21.60;99.90;;;;;;5008566;28;20230;-64
2023/09/12 01:35:49;;;;;;;3.13;2.92;;;21.60;99.90;;;;;;5006444;28;20598;-65
2023/09/12 01:38:16;;;;;;;3.15;2.95;;;21.60;99.90;;;;;;5007625;28;20202;-64
2023/09/12 01:40:47;;;;;;;3.50;3.20;;;21.60;99.90;;;;;;4992953;28;20202;-64
2023/09/12 01:43:17;;;;;;;3.20;3.00;;;21.60;99.90;;;;;;5008356;28;20516;-64
2023/09/12 01:45:47;;;;;;;3.55;3.35;;;21.50;99.90;;;;;;5006976;28;20195;-65
2023/09/12 01:48:20;;;;;;;3.90;3.30;;;21.50;99.90;;;;;;5005925;28;20591;-64
2023/09/12 01:50:48;;;;;;;3.38;3.08;;;21.50;99.90;;;;;;5006827;28;20253;-64
2023/09/12 01:53:16;;;;;;;3.17;2.97;;;21.40;99.90;;;;;;5007216;28;20191;-64
2023/09/12 01:55:44;;;;;;;3.05;2.85;;;21.40;99.90;;;;;;5007354;28;20253;-64
2023/09/12 01:58:13;;;;;;;3.20;3.00;;;21.50;99.90;;;;;;4995271;28;20219;-64
2023/09/12 02:00:41;;;;;;;3.50;3.30;;;21.50;99.90;;;;;;4989535;28;20785;-63
2023/09/12 02:03:09;;;;;;;3.67;3.38;;;21.50;99.90;;;;;;5006401;28;20235;-64
2023/09/12 02:05:37;;;;;;;3.75;3.45;;;21.50;99.90;;;;;;5008056;28;20213;-63
2023/09/12 02:08:05;;;;;;;3.33;3.03;;;21.40;99.90;;;;;;5007030;28;20221;-63
2023/09/12 02:10:32;;;;;;;3.40;3.10;;;21.40;99.90;;;;;;5003685;28;20538;-63
2023/09/12 02:12:59;;;;;;;3.90;3.10;;;21.40;99.90;;;;;;4993547;28;20666;-63
2023/09/12 02:15:26;;;;;;;3.38;3.03;;;21.40;99.90;;;;;;5008509;28;20205;-63
2023/09/12 02:17:54;;;;;;;3.05;2.85;;;21.40;99.90;;;;;;4994641;28;20228;-64
2023/09/12 02:20:22;;;;;;;4.10;3.80;;;21.40;99.90;;;;;;5007102;28;20223;-65
2023/09/12 02:22:49;;;;;;;3.38;3.10;;;21.40;99.90;;;;;;5006435;28;20214;-65
2023/09/12 02:25:18;;;;;;;3.50;3.30;;;21.40;99.90;;;;;;5004322;28;20226;-64
2023/09/12 02:27:48;;;;;;;3.45;3.15;;;21.40;99.90;;;;;;5007133;28;20260;-63
2023/09/12 02:30:16;;;;;;;3.70;3.40;;;21.40;99.90;;;;;;5006905;28;20283;-63
2023/09/12 02:32:43;;;;;;;3.25;3.05;;;21.40;99.90;;;;;;4989271;28;20211;-64
2023/09/12 02:35:10;;;;;;;3.17;2.97;;;21.30;99.90;;;;;;5005304;28;20686;-63
2023/09/12 02:37:38;;;;;;;2.97;2.70;;;21.40;99.90;;;;;;4991004;28;20283;-63
2023/09/12 02:40:10;;;;;;;2.80;2.60;;;21.40;99.90;;;;;;5006215;28;20218;-64
2023/09/12 02:42:37;;;;;;;3.25;3.05;;;21.40;99.90;;;;;;4996551;28;20207;-64
2023/09/12 02:45:05;;;;;;;2.70;2.50;;;21.40;99.90;;;;;;4991357;28;20199;-63
2023/09/12 02:47:32;;;;;;;3.83;2.40;;;21.30;99.90;;;;;;5006425;28;20222;-63
2023/09/12 02:50:00;;;;;;;2.92;2.72;;;21.30;99.90;;;;;;5005194;28;20195;-63
2023/09/12 02:52:27;;;;;;;2.70;2.50;;;21.30;99.90;;;;;;5006358;28;20474;-63
2023/09/12 02:54:55;;;;;;;3.20;2.92;;;21.30;99.90;;;;;;4987394;28;20207;-63
2023/09/12 02:57:23;;;;;;;3.60;2.72;;;21.30;99.90;;;;;;5007615;28;22019;-63
2023/09/12 02:59:50;;;;;;;2.83;2.63;;;21.40;99.90;;;;;;5006269;28;20243;-63
2023/09/12 03:02:17;;;;;;;3.03;2.83;;;21.30;99.90;;;;;;5011593;28;20288;-63
2023/09/12 03:04:44;;;;;;;3.17;2.97;;;21.20;99.90;;;;;;5008529;28;20277;-64
2023/09/12 03:07:11;;;;;;;3.60;3.15;;;21.20;99.90;;;;;;5010626;28;20312;-63
2023/09/12 03:09:38;;;;;;;2.95;2.75;;;21.20;99.90;;;;;;5009373;28;20195;-64
2023/09/12 03:12:07;;;;;;;2.85;2.75;;;21.10;99.90;;;;;;4995287;28;20265;-64
2023/09/12 03:14:35;;;;;;;3.22;2.97;;;21.10;99.90;;;;;;4992111;28;20269;-63
2023/09/12 03:17:04;;;;;;;2.80;2.60;;;21.10;99.90;;;;;;4990638;28;20249;-63
2023/09/12 03:19:31;;;;;;;2.55;2.45;;;21.20;99.90;;;;;;4993422;28;20220;-63
2023/09/12 03:21:58;;;;;;;2.95;2.75;;;21.20;99.90;;;;;;4996347;28;20198;-63
2023/09/12 03:24:25;;;;;;;2.95;2.75;;;21.10;99.90;;;;;;5007726;28;20202;-64
2023/09/12 03:26:52;;;;;;;3.83;2.60;;;21.20;99.90;;;;;;4998797;28;20195;-62
2023/09/12 03:29:21;;;;;;;2.90;2.70;;;21.10;99.90;;;;;;4995701;28;20828;-62
2023/09/12 03:31:49;;;;;;;2.80;2.60;;;21.10;99.90;;;;;;4997654;28;20210;-64
2023/09/12 03:34:16;;;;;;;3.17;2.97;;;21.00;99.90;;;;;;4992759;28;20676;-64
2023/09/12 03:36:43;;;;;;;3.03;2.83;;;21.10;99.90;;;;;;5009615;28;20276;-64
2023/09/12 03:39:13;;;;;;;2.97;2.70;;;21.10;99.90;;;;;;5009644;28;20349;-64
2023/09/12 03:41:40;;;;;;;3.97;2.50;;;21.00;99.90;;;;;;4991704;28;20676;-64
2023/09/12 03:44:08;;;;;;;2.47;2.28;;;21.00;99.90;;;;;;5010373;28;20213;-64
2023/09/12 03:46:37;;;;;;;3.00;2.80;;;21.10;99.90;;;;;;5006707;28;20235;-64
2023/09/12 03:49:04;;;;;;;3.25;2.67;;;21.10;99.90;;;;;;4991798;28;20211;-63
2023/09/12 03:51:32;;;;;;;3.20;3.00;;;21.10;99.90;;;;;;4992703;28;20280;-63
2023/09/12 03:53:59;;;;;;;3.17;2.97;;;21.00;99.90;;;;;;5007381;28;20661;-63
2023/09/12 03:56:26;;;;;;;2.40;2.30;;;21.00;99.90;;;;;;4994819;28;20213;-64
2023/09/12 03:58:56;;;;;;;3.28;2.78;;;21.00;99.90;;;;;;4995927;28;20229;-63
2023/09/12 04:01:23;;;;;;;2.80;2.60;;;21.00;99.90;;;;;;5009709;28;20196;-64
2023/09/12 04:03:52;;;;;;;2.70;2.50;;;21.00;99.90;;;;;;4996014;28;20725;-64
2023/09/12 04:06:19;;;;;;;2.67;2.50;;;21.00;99.90;;;;;;5009605;28;20719;-64
2023/09/12 04:08:46;;;;;;;2.40;2.30;;;21.00;99.90;;;;;;4990141;28;20264;-64
2023/09/12 04:11:13;;;;;;;2.90;2.60;;;21.00;99.90;;;;;;4991772;28;20202;-64
2023/09/12 04:13:40;;;;;;;2.40;2.30;;;21.00;99.90;;;;;;5009329;28;20614;-64
2023/09/12 04:16:08;;;;;;;2.50;2.30;;;21.00;99.90;;;;;;5008925;28;20226;-64
2023/09/12 04:18:35;;;;;;;2.72;2.22;;;21.00;99.90;;;;;;5007844;28;20212;-65
2023/09/12 04:21:04;;;;;;;2.63;2.42;;;21.00;99.90;;;;;;5007579;28;20273;-64
2023/09/12 04:23:31;;;;;;;2.88;2.67;;;21.00;99.90;;;;;;4996408;28;20725;-64
2023/09/12 04:26:00;;;;;;;2.75;2.55;;;21.00;99.90;;;;;;5012064;28;20260;-65
2023/09/12 04:28:27;;;;;;;3.08;2.80;;;21.00;99.90;;;;;;5014183;28;20217;-64
2023/09/12 04:31:02;;;;;;;3.03;2.80;;;20.90;99.90;;;;;;4999350;28;20287;-64
2023/09/12 04:33:29;;;;;;;2.75;2.55;;;20.90;99.90;;;;;;5008251;28;20217;-63
2023/09/12 04:35:59;;;;;;;2.78;2.42;;;20.90;99.90;;;;;;5007585;28;20596;-63
2023/09/12 04:38:28;;;;;;;3.05;2.80;;;20.90;99.90;;;;;;5010232;28;20187;-63
2023/09/12 04:40:56;;;;;;;3.00;2.70;;;20.90;99.90;;;;;;4989541;28;20780;-64
2023/09/12 04:43:24;;;;;;;3.42;2.97;;;20.90;99.90;;;;;;4990431;28;20285;-64
2023/09/12 04:45:51;;;;;;;3.22;2.92;;;20.80;99.90;;;;;;4988557;28;20847;-63
2023/09/12 04:48:18;;;;;;;2.78;2.58;;;20.80;99.90;;;;;;4994821;28;20230;-63
2023/09/12 04:50:45;;;;;;;3.90;2.80;;;20.80;99.90;;;;;;4993075;28;20801;-63
2023/09/12 04:53:13;;;;;;;2.75;2.55;;;20.80;99.90;;;;;;5007160;28;20194;-63
2023/09/12 04:55:41;;;;;;;3.00;2.80;;;20.80;99.90;;;;;;5007124;28;20570;-64
2023/09/12 04:58:09;;;;;;;2.55;2.40;;;20.80;99.90;;;;;;5008163;28;20280;-64
2023/09/12 05:00:36;;;;;;;2.15;2.05;;;20.90;99.90;;;;;;5007903;28;20687;-64
2023/09/12 05:03:03;;;;;;;2.55;2.30;;;20.90;99.90;;;;;;5007804;28;20227;-64
2023/09/12 05:05:31;;;;;;;2.58;2.40;;;20.90;99.90;;;;;;5006762;28;20674;-64
2023/09/12 05:07:58;;;;;;;2.47;2.28;;;21.00;99.90;;;;;;5008228;28;20194;-64
2023/09/12 05:10:26;;;;;;;3.22;2.75;;;21.00;99.90;;;;;;5006099;28;20191;-64
2023/09/12 05:12:54;;;;;;;2.40;2.20;;;21.00;99.90;;;;;;5007889;28;20553;-64
2023/09/12 05:15:21;;;;;;;3.17;2.88;;;21.00;99.90;;;;;;5007399;28;20706;-64
2023/09/12 05:17:48;;;;;;;2.58;2.38;;;21.00;99.90;;;;;;4996178;28;20218;-64
2023/09/12 05:20:16;;;;;;;2.75;2.28;;;20.90;99.90;;;;;;4991786;28;20219;-63
2023/09/12 05:22:43;;;;;;;2.50;2.30;;;20.90;99.90;;;;;;5008847;28;20199;-63
2023/09/12 05:25:10;;;;;;;3.15;2.20;;;20.90;99.90;;;;;;4996014;28;20207;-63
2023/09/12 05:27:37;;;;;;;2.40;2.30;;;20.90;99.90;;;;;;4999748;28;20195;-63
2023/09/12 05:30:07;;;;;;;2.63;2.42;;;20.90;99.90;;;;;;5030142;28;20220;-63
2023/09/12 05:32:34;;;;;;;2.58;2.42;;;20.90;99.90;;;;;;5029907;28;20198;-64
2023/09/12 05:35:01;;;;;;;2.35;2.15;;;20.90;99.90;;;;;;5007044;28;20214;-64
2023/09/12 05:37:28;;;;;;;4.30;2.47;;;20.90;99.90;;;;;;4990884;28;20695;-63
2023/09/12 05:39:55;;;;;;;2.65;2.17;;;20.90;99.90;;;;;;5006932;28;20765;-63
2023/09/12 05:42:22;;;;;;;2.65;2.45;;;20.90;99.90;;;;;;5006754;28;20203;-63
2023/09/12 05:44:53;;;;;;;3.28;2.35;;;20.90;99.90;;;;;;5007447;28;20266;-63
2023/09/12 05:47:22;;;;;;;2.78;2.55;;;20.90;99.90;;;;;;4997468;28;20590;-63
2023/09/12 05:49:49;;;;;;;3.42;3.13;;;20.90;99.90;;;;;;4986584;28;20627;-64
2023/09/12 05:52:16;;;;;;;2.95;2.75;;;20.90;99.90;;;;;;5008650;28;20198;-64
2023/09/12 05:54:43;;;;;;;2.83;2.60;;;20.90;99.90;;;;;;5006460;28;20191;-64
2023/09/12 05:57:11;;;;;;;4.05;3.20;;;21.00;99.90;;;;;;5006237;28;20670;-64
2023/09/12 05:59:40;;;;;;;2.80;2.60;;;20.90;99.90;;;;;;5007061;28;20210;-64
2023/09/12 06:02:09;;;;;;;2.75;2.55;;;21.00;99.90;;;;;;4989555;28;20643;-64
2023/09/12 06:04:38;;;;;;;3.35;3.00;;;21.00;99.90;;;;;;5003082;28;20253;-64
2023/09/12 06:07:05;;;;;;;3.28;2.67;;;21.10;99.90;;;;;;5007523;28;20214;-64
2023/09/12 06:09:33;;;;;;;3.85;3.40;;;21.10;99.90;;;;;;5001076;28;20595;-64
2023/09/12 06:12:00;;;;;;;4.88;3.78;;;21.10;99.90;;;;;;5003456;28;20225;-64
2023/09/12 06:14:27;;;;;;;4.50;4.10;;;21.20;99.90;;;;;;5006652;28;20218;-64
2023/09/12 06:16:58;;;;;;;4.43;4.07;;;21.20;99.90;;;;;;5006750;28;20207;-64
2023/09/12 06:19:26;;;;;;;4.90;4.50;;;21.20;99.90;;;;;;4986104;28;21212;-64
2023/09/12 06:21:55;;;;;;;5.10;4.20;;;21.20;99.90;;;;;;5006171;28;20256;-64
2023/09/12 06:24:23;;;;;;;4.32;3.95;;;21.20;99.90;;;;;;5004946;28;20223;-64
2023/09/12 06:26:50;;;;;;;3.45;3.25;;;21.30;99.90;;;;;;5006741;28;20199;-64
2023/09/12 06:29:17;;;;;;;3.35;3.05;;;21.30;99.90;;;;;;5026292;28;20285;-63
2023/09/12 06:31:44;;;;;;;3.83;3.50;;;21.40;99.90;;;;;;5019357;28;20696;-63
2023/09/12 06:34:12;;;;;;;4.22;3.83;;;21.50;99.90;;;;;;5012984;28;20261;-64
2023/09/12 06:36:41;;;;;;;3.80;3.60;;;21.40;99.90;;;;;;5009278;28;20317;-64
2023/09/12 06:39:09;;;;;;;3.67;3.38;;;21.50;99.90;;;;;;5008429;28;20772;-64
2023/09/12 06:41:44;;;;;;;3.55;3.28;;;21.50;99.90;;;;;;5008642;28;20207;-65
2023/09/12 06:44:15;;;;;;;3.85;3.50;;;21.50;99.90;;;;;;5008150;28;20190;-63
2023/09/12 06:46:42;;;;;;;4.18;3.78;;;21.60;99.90;;;;;;5009745;28;20252;-63
2023/09/12 06:49:09;;;;;;;3.78;3.47;;;21.70;99.90;;;;;;5008281;28;20194;-64
2023/09/12 06:51:36;;;;;;;4.50;4.15;;;21.70;99.90;;;;;;5008627;28;20194;-64
2023/09/12 06:54:03;;;;;;;4.68;4.05;;;21.80;99.90;;;;;;5007833;28;20278;-64
2023/09/12 06:56:32;;;;;;;3.88;3.58;;;21.80;99.90;;;;;;5006250;28;20257;-64
2023/09/12 06:58:59;;;;;;;3.63;3.33;;;21.90;99.90;;;;;;5008509;28;20278;-63
2023/09/12 07:01:26;;;;;;;3.08;2.88;;;21.90;99.90;;;;;;5008264;28;20218;-63
2023/09/12 07:03:54;;;;;;;4.88;4.10;;;22.00;99.90;;;;;;5008865;28;20251;-63
2023/09/12 07:06:21;;;;;;;4.07;3.67;;;22.00;99.90;;;;;;5008207;28;20202;-63
2023/09/12 07:08:49;;;;;;;5.25;3.92;;;22.10;99.90;;;;;;5010174;28;20202;-63
2023/09/12 07:11:16;;;;;;;5.57;4.18;;;22.30;99.90;;;;;;5008693;28;20198;-62
2023/09/12 07:13:45;;;;;;;5.57;4.80;;;22.30;99.90;;;;;;4995836;28;20214;-62
2023/09/12 07:16:12;;;;;;;5.15;4.65;;;22.40;99.90;;;;;;5008867;28;20562;-62
2023/09/12 07:18:39;;;;;;;5.00;4.55;;;22.40;99.90;;;;;;4993530;28;20210;-62
2023/09/12 07:21:07;;;;;;;5.40;5.00;;;22.50;99.90;;;;;;5008677;28;20294;-63
2023/09/12 07:23:35;;;;;;;7.18;5.60;;;22.60;99.90;;;;;;5009039;28;20306;-62
2023/09/12 07:26:02;;;;;;;6.75;6.03;;;22.70;99.90;;;;;;5006975;28;20209;-62
2023/09/12 07:28:31;;;;;;;6.30;5.72;;;22.70;99.90;;;;;;5005055;28;20565;-62
2023/09/12 07:31:00;;;;;;;6.85;6.15;;;22.80;99.90;;;;;;5030399;28;20702;-62
2023/09/12 07:33:27;;;;;;;5.55;5.05;;;22.90;99.90;;;;;;5028599;28;20191;-62
2023/09/12 07:35:55;;;;;;;9.45;7.43;;;22.90;99.90;;;;;;5007272;28;20301;-62
2023/09/12 07:38:22;;;;;;;8.65;7.30;;;23.00;99.90;;;;;;5007994;28;20203;-64
2023/09/12 07:40:50;;;;;;;10.45;7.22;;;23.10;99.90;;;;;;5008744;28;20242;-62
2023/09/12 07:43:17;;;;;;;6.25;5.65;;;23.10;99.90;;;;;;5007734;28;20199;-64
2023/09/12 07:45:45;;;;;;;4.97;4.57;;;23.20;99.90;;;;;;5009231;28;20340;-64
2023/09/12 07:48:14;;;;;;;5.18;4.70;;;23.20;99.90;;;;;;5008590;28;20198;-64
2023/09/12 07:50:42;;;;;;;4.50;4.20;;;23.30;99.90;;;;;;5006771;28;20658;-61
2023/09/12 07:53:09;;;;;;;5.47;4.15;;;23.40;99.90;;;;;;5008637;28;20807;-63
2023/09/12 07:55:45;;;;;;;5.78;5.18;;;23.50;99.90;;;;;;5006710;28;20215;-63
2023/09/12 07:58:12;;;;;;;5.85;5.30;;;23.50;99.90;;;;;;5006444;28;20186;-63
2023/09/12 08:00:40;;;;;;;4.57;4.18;;;23.60;99.90;;;;;;5007241;28;20269;-63
2023/09/12 08:03:07;;;;;;;4.60;4.20;;;23.70;99.90;;;;;;5005240;28;20265;-63
2023/09/12 08:05:35;;;;;;;5.40;4.70;;;23.80;99.90;;;;;;4994000;28;20659;-62
2023/09/12 08:08:03;;;;;;;5.30;4.75;;;23.90;99.90;;;;;;5007217;28;20736;-63
2023/09/12 08:10:30;;;;;;;8.55;7.30;;;24.00;99.90;;;;;;4990807;28;20956;-62
2023/09/12 08:12:57;;;;;;;12.65;5.90;;;24.10;99.90;;;;;;5007483;28;20203;-63
2023/09/12 08:15:25;;;;;;;6.97;5.68;;;24.10;99.90;;;;;;5006051;28;20261;-63
2023/09/12 08:17:53;;;;;;;6.05;5.55;;;24.20;99.90;;;;;;5007705;28;20335;-63
2023/09/12 08:20:21;;;;;;;5.95;5.45;;;24.20;99.90;;;;;;5006635;28;20218;-63
2023/09/12 08:22:49;;;;;;;5.35;4.85;;;24.30;99.90;;;;;;5006459;28;20204;-62
2023/09/12 08:25:18;;;;;;;7.95;6.20;;;24.40;99.90;;;;;;5006934;28;20194;-63
2023/09/12 08:27:45;;;;;;;5.40;4.90;;;24.50;99.90;;;;;;5008117;28;20203;-63
2023/09/12 08:30:13;;;;;;;5.45;4.50;;;24.50;99.90;;;;;;4995055;28;20206;-63
2023/09/12 08:32:43;;;;;;;6.75;5.35;;;24.50;99.90;;;;;;5009045;28;20213;-63
2023/09/12 08:35:12;;;;;;;5.25;4.85;;;24.60;99.90;;;;;;5006589;28;20209;-62
2023/09/12 08:37:39;;;;;;;4.95;4.55;;;24.70;99.90;;;;;;5005689;28;20214;-62
2023/09/12 08:40:10;;;;;;;6.50;4.90;;;24.70;99.90;;;;;;5010015;28;20207;-63
2023/09/12 08:42:41;;;;;;;4.75;4.35;;;24.80;99.90;;;;;;5007641;28;20740;-63
2023/09/12 08:45:14;;;;;;;4.38;4.03;;;24.90;99.90;;;;;;5005212;28;20262;-63
2023/09/12 08:47:44;;;;;;;4.25;3.95;;;25.00;99.90;;;;;;5007308;28;20264;-62
2023/09/12 08:50:13;;;;;;;4.55;4.15;;;25.00;99.90;;;;;;5006903;28;20195;-63
2023/09/12 08:52:41;;;;;;;4.10;3.80;;;25.10;99.90;;;;;;5008380;28;20202;-63
2023/09/12 08:55:11;;;;;;;7.50;5.30;;;25.20;99.90;;;;;;5006673;28;20199;-63
2023/09/12 08:57:40;;;;;;;5.30;4.90;;;25.20;99.90;;;;;;5001028;28;20745;-63
2023/09/12 09:00:10;;;;;;;6.60;4.80;;;25.30;99.90;;;;;;5006215;28;20284;-63
2023/09/12 09:02:38;;;;;;;5.55;4.88;;;25.30;99.90;;;;;;5006903;28;20215;-63
2023/09/12 09:05:08;;;;;;;5.40;5.00;;;25.30;99.90;;;;;;5008073;28;20347;-63
2023/09/12 09:07:37;;;;;;;5.55;5.05;;;25.40;99.90;;;;;;5007753;28;20204;-63
2023/09/12 09:10:06;;;;;;;5.45;4.90;;;25.40;99.90;;;;;;5006775;28;20195;-63
2023/09/12 09:12:35;;;;;;;8.25;5.15;;;25.50;99.90;;;;;;5008001;28;20363;-63
2023/09/12 09:15:24;;;;;;;7.50;5.88;;;25.60;99.90;;;;;;5008514;28;20193;-63
2023/09/12 09:17:53;;;;;;;6.45;5.70;;;25.60;99.90;;;;;;5008712;28;20195;-63
2023/09/12 09:20:26;;;;;;;5.95;5.38;;;25.70;99.90;;;;;;5007036;28;20737;-63
2023/09/12 09:23:05;;;;;;;5.15;4.65;;;25.80;99.90;;;;;;5007780;28;20214;-63
2023/09/12 09:25:33;;;;;;;5.47;4.97;;;26.00;99.90;;;;;;5006964;28;20223;-63
2023/09/12 09:28:04;;;;;;;8.30;5.35;;;26.10;99.90;;;;;;5008381;28;20203;-63
2023/09/12 09:30:42;;;;;;;6.50;5.90;;;26.20;99.90;;;;;;5007700;28;20257;-63
2023/09/12 09:33:10;;;;;;;6.88;5.57;;;26.30;99.90;;;;;;5007726;28;20187;-62
2023/09/12 09:35:38;;;;;;;6.03;5.30;;;26.40;99.90;;;;;;5007407;28;20410;-62
2023/09/12 09:38:09;;;;;;;5.70;5.15;;;26.50;99.90;;;;;;5006963;28;20203;-63
2023/09/12 09:40:37;;;;;;;5.53;5.03;;;26.60;99.90;;;;;;5006822;28;20637;-62
2023/09/12 09:43:06;;;;;;;5.38;4.85;;;26.80;99.90;;;;;;5008179;28;20301;-63
2023/09/12 09:45:33;;;;;;;4.72;4.32;;;27.00;99.90;;;;;;4995729;28;20602;-63
2023/09/12 09:48:06;;;;;;;4.95;4.53;;;27.10;99.90;;;;;;4995440;28;20547;-63
2023/09/12 09:50:36;;;;;;;4.82;4.10;;;27.30;99.90;;;;;;5005903;28;20201;-63
2023/09/12 09:53:08;;;;;;;6.22;4.85;;;27.40;99.90;;;;;;5007448;28;20273;-63
2023/09/12 09:55:35;;;;;;;5.80;5.22;;;27.50;99.90;;;;;;5005034;28;20201;-63
2023/09/12 09:58:02;;;;;;;4.88;4.53;;;27.60;99.90;;;;;;4995539;28;20207;-63
2023/09/12 10:00:34;;;;;;;4.93;4.35;;;27.70;99.90;;;;;;5007944;28;20703;-63
2023/09/12 10:03:05;;;;;;;4.50;4.10;;;27.80;99.90;;;;;;5006072;28;22849;-62
2023/09/12 10:05:33;;;;;;;4.40;4.10;;;27.90;99.90;;;;;;5009000;28;20573;-62
2023/09/12 10:08:02;;;;;;;3.60;3.40;;;28.00;99.90;;;;;;5007410;28;20196;-62
2023/09/12 10:10:30;;;;;;;4.43;4.07;;;28.20;99.90;;;;;;4995309;28;20198;-62
2023/09/12 10:12:59;;;;;;;4.75;3.70;;;28.40;99.90;;;;;;5006171;28;22025;-63
2023/09/12 10:15:31;;;;;;;4.45;3.75;;;28.60;99.50;;;;;;5006019;28;20205;-62
2023/09/12 10:18:00;;;;;;;4.40;4.05;;;28.80;98.90;;;;;;5006113;28;20191;-61
2023/09/12 10:20:34;;;;;;;4.82;3.75;;;28.90;98.10;;;;;;5006585;28;20219;-63
2023/09/12 10:23:10;;;;;;;3.67;3.38;;;28.90;97.70;;;;;;5007554;28;20367;-63
2023/09/12 10:25:38;;;;;;;4.85;4.43;;;29.10;96.90;;;;;;5006549;28;20187;-63
2023/09/12 10:28:06;;;;;;;4.10;3.80;;;29.20;96.00;;;;;;5006674;28;20679;-63
2023/09/12 10:30:37;;;;;;;4.50;4.05;;;29.20;95.60;;;;;;5006091;28;20223;-63
2023/09/12 10:33:05;;;;;;;6.13;3.78;;;29.30;95.10;;;;;;5007887;28;20539;-63
2023/09/12 10:35:33;;;;;;;3.80;3.60;;;29.30;95.10;;;;;;5006613;28;20202;-62
2023/09/12 10:38:04;;;;;;;4.03;3.63;;;29.40;94.40;;;;;;5003286;28;20486;-62
2023/09/12 10:40:35;;;;;;;3.78;3.47;;;29.60;93.80;;;;;;4999817;28;20793;-63
2023/09/12 10:43:05;;;;;;;3.75;3.47;;;29.60;93.00;;;;;;5004909;28;20245;-63
2023/09/12 10:45:33;;;;;;;3.35;3.15;;;29.70;92.20;;;;;;5006159;28;20781;-64
2023/09/12 10:48:02;;;;;;;4.07;3.78;;;29.90;91.80;;;;;;5003802;28;20205;-63
2023/09/12 10:50:30;;;;;;;4.28;3.70;;;30.00;90.90;;;;;;5004742;28;20198;-63
2023/09/12 10:53:08;;;;;;;3.90;3.70;;;30.00;90.10;;;;;;4993283;28;20227;-62
2023/09/12 10:55:36;;;;;;;4.28;3.97;;;30.00;89.90;;;;;;5004478;28;20201;-62
2023/09/12 10:58:04;;;;;;;4.05;3.75;;;30.10;89.70;;;;;;5005536;28;20198;-63
2023/09/12 11:00:34;;;;;;;4.90;4.40;;;30.10;88.00;;;;;;5004346;28;20209;-62
2023/09/12 11:03:39;;;;;;;4.15;3.85;;;30.10;86.90;;;;;;5005183;28;20238;-63
2023/09/12 11:06:22;;;;;;;3.28;3.08;;;30.10;86.00;;;;;;5003521;28;20195;-63
2023/09/12 11:09:18;;;;;;;3.80;3.50;;;30.20;85.50;;;;;;5002605;28;20390;-62
2023/09/12 11:11:47;;;;;;;4.30;4.00;;;30.30;84.40;;;;;;4988352;28;20694;-62
2023/09/12 11:14:16;;;;;;;3.53;3.30;;;30.40;82.50;;;;;;5005402;28;20780;-63
2023/09/12 11:16:44;;;;;;;3.60;3.40;;;30.50;82.60;;;;;;5002550;28;20202;-63
2023/09/12 11:19:18;;;;;;;3.38;3.17;;;30.50;82.10;;;;;;4992086;28;20784;-63
2023/09/12 11:21:46;;;;;;;4.10;3.80;;;30.50;81.50;;;;;;5005765;28;20215;-62
2023/09/12 11:24:14;;;;;;;3.72;3.53;;;30.50;80.10;;;;;;5004791;28;20778;-62
2023/09/12 11:26:55;;;;;;;5.03;4.05;;;30.60;79.90;;;;;;5007816;28;20553;-62
2023/09/12 11:29:23;;;;;;;4.68;4.38;;;30.60;78.50;;;;;;5017533;28;20292;-63
2023/09/12 11:31:57;;;;;;;4.22;3.80;;;30.60;77.30;;;;;;5026565;28;20276;-63
2023/09/12 11:34:28;;;;;;;5.50;4.95;;;30.50;77.90;;;;;;5020208;28;20276;-62
2023/09/12 11:37:00;;;;;;;4.53;4.13;;;30.50;76.70;;;;;;5008810;28;20757;-63
2023/09/12 11:39:31;;;;;;;4.43;4.03;;;30.50;76.90;;;;;;5006306;28;20618;-61
2023/09/12 11:41:59;;;;;;;4.85;4.40;;;30.50;77.00;;;;;;5009366;28;20264;-62
2023/09/12 11:44:27;;;;;;;4.38;3.97;;;30.40;76.30;;;;;;5007886;28;20206;-62
2023/09/12 11:46:55;;;;;;;6.07;4.60;;;30.40;76.20;;;;;;5006422;28;20591;-62
2023/09/12 11:49:22;;;;;;;5.00;4.55;;;30.40;76.10;;;;;;5008271;28;21070;-62
2023/09/12 11:51:53;;;;;;;4.07;3.72;;;30.40;76.10;;;;;;5007342;28;20267;-63
2023/09/12 11:54:21;;;;;;;3.92;3.63;;;30.50;76.00;;;;;;5007293;28;20195;-63
2023/09/12 11:56:50;;;;;;;4.13;3.83;;;30.60;75.30;;;;;;5007874;28;20211;-63
2023/09/12 11:59:19;;;;;;;5.82;4.15;;;30.60;74.90;;;;;;5006042;28;20222;-63
2023/09/12 12:01:47;;;;;;;4.68;4.28;;;30.70;74.40;;;;;;5005999;28;20297;-63
2023/09/12 12:04:15;;;;;;;3.65;3.42;;;30.70;74.30;;;;;;4965642;28;1204901;-63
2023/09/12 12:06:42;;;;;;;3.60;3.40;;;30.70;74.00;;;;;;4996331;28;20908;-63
2023/09/12 12:09:11;;;;;;;4.65;3.90;;;30.70;74.00;;;;;;4990721;28;20202;-63
2023/09/12 12:11:39;;;;;;;4.10;3.80;;;30.80;73.50;;;;;;5009058;28;20198;-63
2023/09/12 12:14:14;;;;;;;5.10;4.70;;;30.70;73.70;;;;;;5008055;28;20207;-63
2023/09/12 12:16:42;;;;;;;4.25;3.85;;;30.70;73.50;;;;;;5008934;28;20212;-63
2023/09/12 12:19:09;;;;;;;3.85;3.60;;;30.70;73.40;;;;;;5008169;28;20218;-63
2023/09/12 12:21:36;;;;;;;8.65;5.65;;;30.70;73.50;;;;;;5006649;28;20239;-63
2023/09/12 12:24:06;;;;;;;5.20;4.80;;;30.60;72.00;;;;;;5008394;28;20257;-63
2023/09/12 12:26:35;;;;;;;4.80;4.40;;;30.60;72.60;;;;;;5007633;28;20199;-63
2023/09/12 12:29:03;;;;;;;4.30;4.00;;;30.60;73.00;;;;;;5007961;28;20210;-63
2023/09/12 12:31:30;;;;;;;3.85;3.65;;;30.30;72.70;;;;;;5008191;28;22315;-64
2023/09/12 12:33:59;;;;;;;6.55;4.78;;;30.60;72.80;;;;;;5004450;28;20231;-63
2023/09/12 12:36:27;;;;;;;3.80;3.60;;;30.60;72.30;;;;;;5004446;28;20260;-63
2023/09/12 12:38:54;;;;;;;4.40;4.10;;;30.60;72.50;;;;;;5003424;28;20673;-63
2023/09/12 12:41:26;;;;;;;4.95;4.50;;;30.70;72.50;;;;;;5007439;28;20210;-63
2023/09/12 12:43:58;;;;;;;4.50;3.35;;;30.70;71.90;;;;;;5007098;28;20210;-63
2023/09/12 12:46:26;;;;;;;4.47;4.07;;;30.80;71.90;;;;;;5008273;28;20566;-63
2023/09/12 12:48:53;;;;;;;4.88;4.13;;;31.20;71.20;;;;;;4991777;28;20697;-63
2023/09/12 12:51:23;;;;;;;4.00;3.80;;;31.60;70.20;;;;;;5000344;28;20644;-63
2023/09/12 12:53:52;;;;;;;4.95;4.55;;;31.90;69.50;;;;;;5006379;28;20213;-63